Time;durP1;ratioP1;P1;durP2;ratioP2;P2;SDS_P1;SDS_P2;PMS_P1;PMS_P2;Temp;Humidity;BMP_temperature;BMP_pressure;BME280_temperature;BME280_humidity;BME280_pressure;Samples;Min_cycle;Max_cycle;Signal;HPM_P1;HPM_P2
2022/10/11 00:01:05;;;;;;;13.30;3.55;;;6.60;99.90;;;;;;5046872;28;20040;-41
2022/10/11 00:03:31;;;;;;;10.88;3.55;;;6.50;99.90;;;;;;5063788;28;20125;-40
2022/10/11 00:05:58;;;;;;;20.33;4.80;;;6.50;99.90;;;;;;5070124;28;20084;-40
2022/10/11 00:08:24;;;;;;;16.45;4.03;;;6.50;99.90;;;;;;5053492;28;20051;-41
2022/10/11 00:11:03;;;;;;;14.98;4.05;;;6.50;99.90;;;;;;5069135;28;20082;-39
2022/10/11 00:13:29;;;;;;;20.65;3.20;;;6.60;99.90;;;;;;5069033;28;20059;-46
2022/10/11 00:15:56;;;;;;;20.90;4.93;;;6.60;99.90;;;;;;5070805;28;20059;-45
2022/10/11 00:18:23;;;;;;;16.90;4.20;;;6.60;99.90;;;;;;5072357;28;20126;-46
2022/10/11 00:20:49;;;;;;;18.70;3.58;;;6.60;99.90;;;;;;5069022;28;20135;-49
2022/10/11 00:23:16;;;;;;;18.13;3.63;;;6.60;99.90;;;;;;5068440;28;20132;-45
2022/10/11 00:25:42;;;;;;;20.58;4.80;;;6.70;99.90;;;;;;5070772;28;20064;-45
2022/10/11 00:28:09;;;;;;;16.08;4.30;;;6.70;99.90;;;;;;5067208;28;20195;-45
2022/10/11 00:30:35;;;;;;;15.88;3.50;;;6.70;99.90;;;;;;5071710;28;20063;-45
2022/10/11 00:33:01;;;;;;;13.20;3.55;;;6.70;99.90;;;;;;5075273;28;20483;-45
2022/10/11 00:35:27;;;;;;;19.27;3.95;;;6.60;99.90;;;;;;5070859;28;20509;-45
2022/10/11 00:37:56;;;;;;;13.80;3.17;;;6.60;99.90;;;;;;5066136;28;20044;-44
2022/10/11 00:40:22;;;;;;;18.42;3.50;;;6.50;99.90;;;;;;5066632;28;20083;-46
2022/10/11 00:42:49;;;;;;;10.43;3.40;;;6.40;99.90;;;;;;5070699;28;20048;-45
2022/10/11 00:45:26;;;;;;;16.98;3.63;;;6.40;99.90;;;;;;5066140;28;20103;-53
2022/10/11 00:47:59;;;;;;;12.43;3.53;;;6.50;99.90;;;;;;5075362;28;20071;-41
2022/10/11 00:50:30;;;;;;;11.88;4.43;;;6.50;99.90;;;;;;5062730;28;20059;-39
2022/10/11 00:53:00;;;;;;;12.35;3.60;;;6.60;99.90;;;;;;5065870;28;20045;-40
2022/10/11 00:55:32;;;;;;;15.20;4.15;;;6.60;99.90;;;;;;5070119;28;20056;-40
2022/10/11 00:57:59;;;;;;;16.60;4.20;;;6.50;99.90;;;;;;5067913;28;20229;-40
2022/10/11 01:00:25;;;;;;;9.15;3.20;;;6.50;99.90;;;;;;5069245;28;20044;-40
2022/10/11 01:02:51;;;;;;;12.45;3.20;;;6.50;99.90;;;;;;5074358;28;20131;-40
2022/10/11 01:05:18;;;;;;;12.15;3.78;;;6.50;99.90;;;;;;5053900;28;20044;-40
2022/10/11 01:07:46;;;;;;;14.63;3.20;;;6.50;99.90;;;;;;5061698;28;20044;-39
2022/10/11 01:10:13;;;;;;;9.95;2.50;;;6.40;99.90;;;;;;5078385;28;20043;-39
2022/10/11 01:13:05;;;;;;;12.52;3.47;;;6.30;99.90;;;;;;5056424;28;20048;-39
2022/10/11 01:15:48;;;;;;;11.65;2.88;;;6.20;99.90;;;;;;5076590;28;20062;-38
2022/10/11 01:18:42;;;;;;;12.82;2.95;;;6.10;99.90;;;;;;5071852;28;21913;-39
2022/10/11 01:21:26;;;;;;;11.82;3.10;;;6.10;99.90;;;;;;5071199;28;20399;-39
2022/10/11 01:24:04;;;;;;;13.45;3.63;;;6.10;99.90;;;;;;5055274;28;20051;-40
2022/10/11 01:26:51;;;;;;;17.30;3.17;;;6.10;99.90;;;;;;5070579;28;20642;-39
2022/10/11 01:29:24;;;;;;;14.07;3.45;;;6.10;99.90;;;;;;5076737;28;20059;-39
2022/10/11 01:31:57;;;;;;;18.90;2.60;;;6.10;99.90;;;;;;5073294;28;20056;-39
2022/10/11 01:34:42;;;;;;;11.45;2.92;;;6.10;99.90;;;;;;5074609;28;20105;-40
2022/10/11 01:37:32;;;;;;;13.15;2.78;;;6.00;99.90;;;;;;5074967;28;20537;-45
2022/10/11 01:40:06;;;;;;;12.27;3.10;;;5.90;99.90;;;;;;5073529;28;20040;-46
2022/10/11 01:42:36;;;;;;;12.50;2.78;;;6.00;99.90;;;;;;5069570;28;20127;-45
2022/10/11 01:45:04;;;;;;;8.43;2.40;;;5.90;99.90;;;;;;5086640;28;20391;-39
2022/10/11 01:47:30;;;;;;;12.02;3.13;;;5.90;99.90;;;;;;5067416;28;20044;-40
2022/10/11 01:50:00;;;;;;;7.97;2.38;;;5.80;99.90;;;;;;5076657;28;20132;-39
2022/10/11 01:52:30;;;;;;;6.88;2.25;;;5.80;99.90;;;;;;5074792;28;20059;-39
2022/10/11 01:55:12;;;;;;;10.93;2.90;;;5.80;99.90;;;;;;5072458;28;21874;-44
2022/10/11 01:58:01;;;;;;;14.67;2.87;;;5.70;99.90;;;;;;5073254;28;20048;-45
2022/10/11 02:00:37;;;;;;;8.15;2.67;;;5.70;99.90;;;;;;5076533;28;20808;-46
2022/10/11 02:03:20;;;;;;;11.43;2.78;;;5.70;99.90;;;;;;5072615;28;20717;-45
2022/10/11 02:05:55;;;;;;;4.75;2.15;;;5.70;99.90;;;;;;5070084;28;20055;-45
2022/10/11 02:08:24;;;;;;;10.70;3.13;;;5.70;99.90;;;;;;5074891;28;20040;-45
2022/10/11 02:10:57;;;;;;;9.18;3.08;;;5.70;99.90;;;;;;5073107;28;20097;-45
2022/10/11 02:13:47;;;;;;;8.95;2.85;;;5.70;99.90;;;;;;5072936;28;20040;-45
2022/10/11 02:16:18;;;;;;;13.35;3.28;;;5.60;99.90;;;;;;5070969;28;20059;-45
2022/10/11 02:18:48;;;;;;;10.55;2.60;;;5.60;99.90;;;;;;5072072;28;20052;-45
2022/10/11 02:21:19;;;;;;;11.30;2.75;;;5.60;99.90;;;;;;5074152;28;20053;-44
2022/10/11 02:24:12;;;;;;;14.40;2.88;;;5.60;99.90;;;;;;5072024;28;20251;-44
2022/10/11 02:26:42;;;;;;;8.48;1.92;;;5.60;99.90;;;;;;5073584;28;20571;-47
2022/10/11 02:29:12;;;;;;;7.50;2.42;;;5.60;99.90;;;;;;5056888;28;20067;-45
2022/10/11 02:31:40;;;;;;;12.88;3.22;;;5.50;99.90;;;;;;5072276;28;20072;-44
2022/10/11 02:34:16;;;;;;;10.05;2.33;;;5.50;99.90;;;;;;5073747;28;20079;-46
2022/10/11 02:36:52;;;;;;;8.02;2.42;;;5.50;99.90;;;;;;5072433;28;20052;-47
2022/10/11 02:39:36;;;;;;;7.72;2.42;;;5.50;99.90;;;;;;5066714;28;20699;-40
2022/10/11 02:42:08;;;;;;;5.00;1.75;;;5.50;99.90;;;;;;5070873;28;20052;-40
2022/10/11 02:44:41;;;;;;;8.68;2.08;;;5.40;99.90;;;;;;5047659;28;20753;-39
2022/10/11 02:47:08;;;;;;;7.10;2.17;;;5.40;99.90;;;;;;5071414;28;20047;-45
2022/10/11 02:49:35;;;;;;;5.93;1.70;;;5.40;99.90;;;;;;5052417;28;20086;-48
2022/10/11 02:52:04;;;;;;;10.55;2.30;;;5.40;99.90;;;;;;5068708;28;20072;-44
2022/10/11 02:54:30;;;;;;;10.73;2.67;;;5.40;99.90;;;;;;5067331;28;20048;-47
2022/10/11 02:56:57;;;;;;;7.03;1.90;;;5.30;99.90;;;;;;5068177;28;20053;-40
2022/10/11 02:59:23;;;;;;;9.40;2.40;;;5.30;99.90;;;;;;5070792;28;20741;-40
2022/10/11 03:01:49;;;;;;;6.47;2.25;;;5.20;99.90;;;;;;5070387;28;20062;-38
2022/10/11 03:04:15;;;;;;;8.10;2.28;;;5.20;99.90;;;;;;5053260;28;20522;-39
2022/10/11 03:06:42;;;;;;;7.50;2.65;;;5.20;99.90;;;;;;5068679;28;20074;-39
2022/10/11 03:09:08;;;;;;;8.98;2.22;;;5.20;99.90;;;;;;5071358;28;20723;-40
2022/10/11 03:11:34;;;;;;;10.35;2.45;;;5.20;99.90;;;;;;5071139;28;20052;-40
2022/10/11 03:14:00;;;;;;;10.93;2.75;;;5.20;99.90;;;;;;5071132;28;20086;-39
2022/10/11 03:16:27;;;;;;;10.15;2.83;;;5.20;99.90;;;;;;5057011;28;20216;-40
2022/10/11 03:18:54;;;;;;;8.43;2.47;;;5.10;99.90;;;;;;5069269;28;20047;-39
2022/10/11 03:21:20;;;;;;;8.57;2.40;;;5.10;99.90;;;;;;5073990;28;20055;-39
2022/10/11 03:23:46;;;;;;;5.10;2.05;;;5.10;99.90;;;;;;5070782;28;20043;-39
2022/10/11 03:26:13;;;;;;;8.82;2.03;;;5.00;99.90;;;;;;5070537;28;20076;-39
2022/10/11 03:28:39;;;;;;;4.25;2.00;;;5.10;99.90;;;;;;5052772;28;20056;-39
2022/10/11 03:31:05;;;;;;;5.95;2.28;;;5.00;99.90;;;;;;5070742;28;20135;-39
2022/10/11 03:33:32;;;;;;;6.78;2.20;;;5.00;99.90;;;;;;5069013;28;20711;-39
2022/10/11 03:35:58;;;;;;;9.35;2.30;;;4.90;99.90;;;;;;5069334;28;20043;-39
2022/10/11 03:38:25;;;;;;;9.18;2.70;;;5.00;99.90;;;;;;5071468;28;20464;-40
2022/10/11 03:40:51;;;;;;;7.20;2.70;;;5.00;99.90;;;;;;5067477;28;20383;-40
2022/10/11 03:43:17;;;;;;;8.45;2.30;;;5.00;99.90;;;;;;5035716;28;20052;-40
2022/10/11 03:45:45;;;;;;;11.75;2.92;;;4.90;99.90;;;;;;5070012;28;20056;-42
2022/10/11 03:48:11;;;;;;;6.63;2.50;;;4.90;99.90;;;;;;5071165;28;20203;-39
2022/10/11 03:50:38;;;;;;;7.63;2.22;;;4.90;99.90;;;;;;5070052;28;20044;-39
2022/10/11 03:53:06;;;;;;;10.15;2.55;;;4.90;99.90;;;;;;5071616;28;20624;-40
2022/10/11 03:55:32;;;;;;;6.75;2.30;;;4.90;99.90;;;;;;5073452;28;20140;-40
2022/10/11 03:57:58;;;;;;;7.93;2.53;;;4.90;99.90;;;;;;5067467;28;20056;-39
2022/10/11 04:00:25;;;;;;;6.95;2.67;;;4.90;99.90;;;;;;5072693;28;20044;-40
2022/10/11 04:02:51;;;;;;;7.65;2.50;;;4.90;99.90;;;;;;5074368;28;20040;-39
2022/10/11 04:05:17;;;;;;;5.07;1.92;;;4.90;99.90;;;;;;5070578;28;20119;-39
2022/10/11 04:07:43;;;;;;;7.00;2.60;;;4.90;99.90;;;;;;5053457;28;20093;-40
2022/10/11 04:10:10;;;;;;;8.65;2.40;;;4.90;99.90;;;;;;5074090;28;20052;-40
2022/10/11 04:12:38;;;;;;;11.88;2.50;;;4.80;99.90;;;;;;5070605;28;20109;-40
2022/10/11 04:15:05;;;;;;;7.85;2.10;;;4.80;99.90;;;;;;5066580;28;20459;-39
2022/10/11 04:17:32;;;;;;;6.13;2.17;;;4.80;99.90;;;;;;5069956;28;20144;-39
2022/10/11 04:19:58;;;;;;;9.65;2.30;;;4.80;99.90;;;;;;5050367;28;20052;-39
2022/10/11 04:22:24;;;;;;;10.38;2.20;;;4.80;99.90;;;;;;5052108;28;20044;-40
2022/10/11 04:24:51;;;;;;;10.00;2.63;;;4.80;99.90;;;;;;5054856;28;20043;-39
2022/10/11 04:27:17;;;;;;;8.50;2.72;;;4.80;99.90;;;;;;5073996;28;20048;-39
2022/10/11 04:29:43;;;;;;;8.65;2.55;;;4.70;99.90;;;;;;5072461;28;20044;-40
2022/10/11 04:32:09;;;;;;;8.77;2.38;;;4.70;99.90;;;;;;5071923;28;20147;-39
2022/10/11 04:34:35;;;;;;;10.27;2.72;;;4.80;99.90;;;;;;5067104;28;20052;-39
2022/10/11 04:37:02;;;;;;;10.52;3.10;;;4.70;99.90;;;;;;5070069;28;20048;-47
2022/10/11 04:39:28;;;;;;;11.77;3.30;;;4.80;99.90;;;;;;5055088;28;20453;-40
2022/10/11 04:41:54;;;;;;;9.60;2.35;;;4.70;99.90;;;;;;5069795;28;20079;-40
2022/10/11 04:44:20;;;;;;;10.27;2.08;;;4.70;99.90;;;;;;5070836;28;20422;-40
2022/10/11 04:46:47;;;;;;;8.30;3.05;;;4.70;99.90;;;;;;5070949;28;20044;-40
2022/10/11 04:49:13;;;;;;;10.93;3.13;;;4.70;99.90;;;;;;5070153;28;20056;-39
2022/10/11 04:51:39;;;;;;;10.20;2.88;;;4.70;99.90;;;;;;5066675;28;20057;-43
2022/10/11 04:54:05;;;;;;;8.48;3.40;;;4.70;99.90;;;;;;5068018;28;20048;-45
2022/10/11 04:56:32;;;;;;;11.23;3.13;;;4.70;99.90;;;;;;5064153;28;20423;-39
2022/10/11 04:58:58;;;;;;;10.32;3.88;;;4.80;99.90;;;;;;5067066;28;20044;-40
2022/10/11 05:01:24;;;;;;;11.30;3.40;;;4.80;99.90;;;;;;5053916;28;20075;-40
2022/10/11 05:03:51;;;;;;;9.70;3.40;;;4.80;99.90;;;;;;5072019;28;20040;-39
2022/10/11 05:06:17;;;;;;;10.50;3.00;;;4.80;99.90;;;;;;5063879;28;20080;-39
2022/10/11 05:08:43;;;;;;;8.50;3.15;;;4.80;99.90;;;;;;5066517;28;20084;-45
2022/10/11 05:11:13;;;;;;;8.40;2.80;;;4.70;99.90;;;;;;5068916;28;20053;-46
2022/10/11 05:13:39;;;;;;;7.70;2.72;;;4.70;99.90;;;;;;5065759;28;20645;-46
2022/10/11 05:16:06;;;;;;;7.10;2.05;;;4.70;99.90;;;;;;5072041;28;20068;-45
2022/10/11 05:18:32;;;;;;;7.97;2.33;;;4.70;99.90;;;;;;5074384;28;20223;-39
2022/10/11 05:21:16;;;;;;;5.80;2.63;;;4.70;99.90;;;;;;5075725;28;20252;-39
2022/10/11 05:23:43;;;;;;;9.23;2.88;;;4.70;99.90;;;;;;5072999;28;20534;-47
2022/10/11 05:26:09;;;;;;;6.63;2.88;;;4.70;99.90;;;;;;5067897;28;20061;-43
2022/10/11 05:28:36;;;;;;;10.38;3.00;;;4.70;99.90;;;;;;5069821;28;20491;-44
2022/10/11 05:31:03;;;;;;;9.73;2.95;;;4.70;99.90;;;;;;5071556;28;20044;-47
2022/10/11 05:33:30;;;;;;;8.60;3.30;;;4.70;99.90;;;;;;5067305;28;20704;-49
2022/10/11 05:35:56;;;;;;;6.38;3.00;;;4.70;99.90;;;;;;5070586;28;20054;-44
2022/10/11 05:38:23;;;;;;;7.45;3.00;;;4.70;99.90;;;;;;5070656;28;20047;-46
2022/10/11 05:40:50;;;;;;;8.38;3.35;;;4.70;99.90;;;;;;5067394;28;20503;-44
2022/10/11 05:43:17;;;;;;;7.53;3.40;;;4.80;99.90;;;;;;5068152;28;20048;-44
2022/10/11 05:45:45;;;;;;;7.53;3.35;;;4.70;99.90;;;;;;5071658;28;20059;-46
2022/10/11 05:48:12;;;;;;;8.38;2.72;;;4.70;99.90;;;;;;5086588;28;20050;-46
2022/10/11 05:50:38;;;;;;;10.85;3.17;;;4.70;99.90;;;;;;5070117;28;20048;-45
2022/10/11 05:53:05;;;;;;;8.40;3.15;;;4.70;99.90;;;;;;5072516;28;20044;-45
2022/10/11 05:55:40;;;;;;;9.85;3.08;;;4.70;99.90;;;;;;5070663;28;20052;-44
2022/10/11 05:58:09;;;;;;;5.65;2.55;;;4.80;99.90;;;;;;5077311;28;20048;-45
2022/10/11 06:00:36;;;;;;;9.05;3.65;;;4.80;99.90;;;;;;5073513;28;20110;-45
2022/10/11 06:03:05;;;;;;;8.82;2.97;;;4.80;99.90;;;;;;5073200;28;20052;-44
2022/10/11 06:05:33;;;;;;;7.85;3.50;;;4.80;99.90;;;;;;5085951;28;20588;-39
2022/10/11 06:07:59;;;;;;;9.98;4.90;;;4.80;99.90;;;;;;5073269;28;20083;-38
2022/10/11 06:10:25;;;;;;;7.95;3.92;;;4.80;99.90;;;;;;5066530;28;20077;-48
2022/10/11 06:12:52;;;;;;;8.98;3.88;;;4.90;99.90;;;;;;5071320;28;20093;-46
2022/10/11 06:15:19;;;;;;;10.18;3.55;;;4.80;99.90;;;;;;5069850;28;20056;-48
2022/10/11 06:17:46;;;;;;;8.15;4.38;;;4.90;99.90;;;;;;5073127;28;20475;-39
2022/10/11 06:20:13;;;;;;;11.88;3.75;;;4.90;99.90;;;;;;5053228;28;20079;-47
2022/10/11 06:22:39;;;;;;;16.10;3.95;;;4.90;99.90;;;;;;5088031;28;20057;-48
2022/10/11 06:25:06;;;;;;;13.02;4.32;;;5.00;99.90;;;;;;5074903;28;20052;-47
2022/10/11 06:27:33;;;;;;;13.48;6.05;;;5.00;99.90;;;;;;5051591;28;20517;-39
2022/10/11 06:29:59;;;;;;;11.32;4.93;;;5.10;99.90;;;;;;5050894;28;20123;-40
2022/10/11 06:32:26;;;;;;;11.32;4.07;;;5.10;99.90;;;;;;5071310;28;20043;-39
2022/10/11 06:34:53;;;;;;;14.75;4.63;;;5.20;99.90;;;;;;5074131;28;20051;-39
2022/10/11 06:37:20;;;;;;;11.60;4.22;;;5.30;99.90;;;;;;5036899;28;20491;-40
2022/10/11 06:39:46;;;;;;;14.23;4.55;;;5.30;99.90;;;;;;5076889;28;20993;-39
2022/10/11 06:42:13;;;;;;;11.50;4.60;;;5.40;99.90;;;;;;5069671;28;20157;-40
2022/10/11 06:44:39;;;;;;;12.45;5.13;;;5.50;99.90;;;;;;5056308;28;20387;-39
2022/10/11 06:47:07;;;;;;;15.25;5.28;;;5.60;99.90;;;;;;5065152;28;20126;-40
2022/10/11 06:49:34;;;;;;;14.00;4.63;;;5.60;99.90;;;;;;5070941;28;20059;-40
2022/10/11 06:52:01;;;;;;;13.40;4.90;;;5.70;99.90;;;;;;5067469;28;20071;-40
2022/10/11 06:54:27;;;;;;;12.25;4.50;;;5.70;99.90;;;;;;5074724;28;20046;-39
2022/10/11 06:56:53;;;;;;;9.45;4.38;;;5.80;99.90;;;;;;5056445;28;20044;-40
2022/10/11 06:59:20;;;;;;;9.45;4.05;;;5.80;99.90;;;;;;5037220;28;20052;-40
2022/10/11 07:01:46;;;;;;;12.52;4.82;;;6.00;99.90;;;;;;5073416;28;20040;-39
2022/10/11 07:04:13;;;;;;;14.60;4.10;;;6.10;99.90;;;;;;5070181;28;20481;-41
2022/10/11 07:06:42;;;;;;;15.73;4.95;;;6.10;99.90;;;;;;5090498;28;20127;-40
2022/10/11 07:09:09;;;;;;;14.48;4.68;;;6.20;99.90;;;;;;5071425;28;20809;-40
2022/10/11 07:11:36;;;;;;;11.82;4.20;;;6.30;99.90;;;;;;5069357;28;20044;-40
2022/10/11 07:14:06;;;;;;;9.70;4.55;;;6.40;99.90;;;;;;5071673;28;20051;-40
2022/10/11 07:16:34;;;;;;;10.77;4.47;;;6.50;99.90;;;;;;5066788;28;20036;-39
2022/10/11 07:19:03;;;;;;;13.15;3.92;;;6.60;99.90;;;;;;5061433;28;20440;-40
2022/10/11 07:21:48;;;;;;;10.65;4.35;;;6.70;99.90;;;;;;5069873;28;20063;-41
2022/10/11 07:24:17;;;;;;;14.27;4.45;;;6.80;99.90;;;;;;5071737;28;20044;-41
2022/10/11 07:26:45;;;;;;;11.13;4.28;;;7.00;99.90;;;;;;5071543;28;20406;-40
2022/10/11 07:29:11;;;;;;;10.30;3.92;;;7.00;99.90;;;;;;5059960;28;20039;-48
2022/10/11 07:31:40;;;;;;;9.77;4.38;;;7.10;99.90;;;;;;5076147;28;20119;-46
2022/10/11 07:34:07;;;;;;;13.95;4.93;;;7.30;99.90;;;;;;5073942;28;20916;-47
2022/10/11 07:36:34;;;;;;;8.55;4.03;;;7.60;99.90;;;;;;5053345;28;20052;-45
2022/10/11 07:39:04;;;;;;;14.18;4.50;;;7.90;99.90;;;;;;5050716;28;20811;-49
2022/10/11 07:41:31;;;;;;;8.90;4.10;;;8.10;99.90;;;;;;5071672;28;20044;-48
2022/10/11 07:44:02;;;;;;;11.45;3.90;;;8.20;99.90;;;;;;5071840;28;20498;-46
2022/10/11 07:46:28;;;;;;;9.90;3.90;;;8.40;99.90;;;;;;5070263;28;20527;-46
2022/10/11 07:48:55;;;;;;;13.63;4.57;;;8.60;99.90;;;;;;5051133;28;20036;-48
2022/10/11 07:51:23;;;;;;;12.48;4.30;;;8.70;99.90;;;;;;5077023;28;20063;-41
2022/10/11 07:53:53;;;;;;;11.32;3.78;;;8.90;99.90;;;;;;5065729;28;20569;-43
2022/10/11 07:56:25;;;;;;;14.15;3.75;;;9.20;99.90;;;;;;5071230;28;20426;-41
2022/10/11 07:58:54;;;;;;;11.23;3.70;;;9.50;99.90;;;;;;5068275;28;20060;-41
2022/10/11 08:01:22;;;;;;;12.35;3.65;;;9.90;99.90;;;;;;5075392;28;20658;-42
2022/10/11 08:03:50;;;;;;;13.27;3.60;;;10.40;99.90;;;;;;5067286;28;20054;-43
2022/10/11 08:06:21;;;;;;;9.20;3.05;;;10.90;99.90;;;;;;5065646;28;20450;-46
2022/10/11 08:08:49;;;;;;;10.18;3.50;;;11.40;99.90;;;;;;5064763;28;20044;-44
2022/10/11 08:11:36;;;;;;;10.32;3.35;;;11.80;99.90;;;;;;5067053;28;20048;-44
2022/10/11 08:14:07;;;;;;;12.48;3.78;;;12.30;99.90;;;;;;5073642;28;20095;-44
2022/10/11 08:16:38;;;;;;;11.47;3.17;;;12.80;99.90;;;;;;5070784;28;20056;-44
2022/10/11 08:19:05;;;;;;;9.05;3.17;;;13.10;99.90;;;;;;5069752;28;20044;-45
2022/10/11 08:21:32;;;;;;;10.30;3.38;;;13.70;99.90;;;;;;5070540;28;20060;-47
2022/10/11 08:24:01;;;;;;;7.20;2.88;;;13.80;99.90;;;;;;5070791;28;20055;-45
2022/10/11 08:26:28;;;;;;;9.35;2.92;;;14.10;99.90;;;;;;5071101;28;20040;-47
2022/10/11 08:28:55;;;;;;;9.30;3.03;;;14.10;99.90;;;;;;5066729;28;20772;-49
2022/10/11 08:31:22;;;;;;;8.63;2.85;;;14.00;99.90;;;;;;5070394;28;20044;-46
2022/10/11 08:33:48;;;;;;;10.98;3.22;;;14.30;99.90;;;;;;5065892;28;20101;-48
2022/10/11 08:36:15;;;;;;;12.60;2.85;;;14.70;99.90;;;;;;5070160;28;20051;-46
2022/10/11 08:38:42;;;;;;;11.35;2.88;;;15.20;99.90;;;;;;5038869;28;20064;-49
2022/10/11 08:41:27;;;;;;;8.25;3.00;;;15.60;99.90;;;;;;5064891;28;20048;-46
2022/10/11 08:43:53;;;;;;;9.90;2.65;;;15.90;99.90;;;;;;5070784;28;20047;-46
2022/10/11 08:46:30;;;;;;;7.93;2.65;;;16.10;99.90;;;;;;5074129;28;20047;-46
2022/10/11 08:48:58;;;;;;;12.07;3.72;;;16.70;99.90;;;;;;5064344;28;20048;-50
2022/10/11 08:51:31;;;;;;;12.65;2.92;;;16.80;99.90;;;;;;5066493;28;20055;-47
2022/10/11 08:54:03;;;;;;;10.50;2.80;;;16.60;99.90;;;;;;5070145;28;20993;-43
2022/10/11 08:56:31;;;;;;;;;;;16.10;99.90;;;;;;5067216;28;20048;-46
2022/10/11 08:58:58;;;;;;;8.27;3.08;;;16.00;99.90;;;;;;5063758;28;19924;-43
2022/10/11 09:01:26;;;;;;;10.25;2.92;;;15.90;99.90;;;;;;5064848;28;20463;-41
2022/10/11 09:03:54;;;;;;;14.63;3.20;;;16.00;99.90;;;;;;5067593;28;20051;-48
2022/10/11 09:06:41;;;;;;;13.10;3.30;;;16.40;99.90;;;;;;5055552;28;20048;-42
2022/10/11 09:09:13;;;;;;;7.45;2.78;;;16.70;99.90;;;;;;5064743;28;20048;-43
2022/10/11 09:11:46;;;;;;;10.32;2.78;;;17.20;99.90;;;;;;5069212;28;20546;-42
2022/10/11 09:14:39;;;;;;;11.00;3.00;;;17.50;99.90;;;;;;5064733;28;20151;-42
2022/10/11 09:17:32;;;;;;;13.23;3.13;;;17.80;99.90;;;;;;5069368;28;20801;-45
2022/10/11 09:20:33;;;;;;;6.85;2.08;;;17.70;99.90;;;;;;5066375;28;20078;-43
2022/10/11 09:23:00;;;;;;;8.20;2.28;;;17.60;99.90;;;;;;5070962;28;20056;-44
2022/10/11 09:25:47;;;;;;;12.35;3.25;;;17.40;99.90;;;;;;5059213;28;20043;-46
2022/10/11 09:28:22;;;;;;;11.50;3.45;;;17.20;99.90;;;;;;5076514;28;20086;-42
2022/10/11 09:30:53;;;;;;;12.70;3.40;;;17.00;99.90;;;;;;5069895;28;20499;-44
2022/10/11 09:33:35;;;;;;;8.40;2.70;;;16.90;99.90;;;;;;5071905;28;20132;-43
2022/10/11 09:36:16;;;;;;;11.60;3.47;;;16.90;99.90;;;;;;5051391;28;20401;-45
2022/10/11 09:38:53;;;;;;;8.73;2.70;;;17.20;99.90;;;;;;5062758;28;20051;-44
2022/10/11 09:41:34;;;;;;;9.55;2.35;;;17.60;99.90;;;;;;5025874;28;20069;-42
2022/10/11 09:44:07;;;;;;;9.68;2.15;;;17.80;99.90;;;;;;5063747;28;20048;-44
2022/10/11 09:46:35;;;;;;;12.52;3.03;;;18.40;99.90;;;;;;5057389;28;20048;-48
2022/10/11 09:49:08;;;;;;;8.75;2.08;;;18.60;99.90;;;;;;5068316;28;20036;-48
2022/10/11 09:51:36;;;;;;;8.63;2.75;;;18.80;99.90;;;;;;5068377;28;20230;-47
2022/10/11 09:54:05;;;;;;;10.57;2.80;;;18.70;99.90;;;;;;5072517;28;20071;-48
2022/10/11 09:56:34;;;;;;;11.00;2.67;;;19.10;99.90;;;;;;5076142;28;20585;-48
2022/10/11 09:59:19;;;;;;;11.80;2.80;;;19.30;99.90;;;;;;5069290;28;20066;-52
2022/10/11 10:01:46;;;;;;;9.05;2.55;;;19.90;99.90;;;;;;5065994;28;20665;-51
2022/10/11 10:04:17;;;;;;;9.55;3.45;;;20.20;99.90;;;;;;5061645;28;20100;-50
2022/10/11 10:06:45;;;;;;;;;;;19.80;99.90;;;;;;5069136;28;20039;-51
2022/10/11 10:09:29;;;;;;;11.75;3.38;;;19.20;99.90;;;;;;5060786;28;19920;-49
2022/10/11 10:11:56;;;;;;;10.52;2.92;;;18.90;99.90;;;;;;5049240;28;20048;-45
2022/10/11 10:14:26;;;;;;;11.73;3.20;;;18.50;99.90;;;;;;5073522;28;20040;-46
2022/10/11 10:17:14;;;;;;;8.02;2.28;;;18.20;99.90;;;;;;5065898;28;20128;-46
2022/10/11 10:19:53;;;;;;;10.75;2.60;;;18.60;99.90;;;;;;5078538;28;20044;-47
2022/10/11 10:22:23;;;;;;;10.13;2.38;;;18.80;99.90;;;;;;5068785;28;20477;-49
2022/10/11 10:24:50;;;;;;;9.93;3.05;;;19.40;99.90;;;;;;5088810;28;20357;-48
2022/10/11 10:27:22;;;;;;;12.23;3.00;;;19.80;99.90;;;;;;5075909;28;20059;-50
2022/10/11 10:30:03;;;;;;;10.63;2.78;;;20.40;99.90;;;;;;5065243;28;20049;-51
2022/10/11 10:32:53;;;;;;;11.07;3.17;;;20.40;99.90;;;;;;5078184;28;20051;-51
2022/10/11 10:35:51;;;;;;;9.95;2.55;;;20.90;99.00;;;;;;5076074;28;20059;-48
2022/10/11 10:38:28;;;;;;;10.32;3.65;;;21.30;97.00;;;;;;5071905;28;20059;-50
2022/10/11 10:41:02;;;;;;;12.80;2.75;;;21.50;96.40;;;;;;5055039;28;20511;-48
2022/10/11 10:43:34;;;;;;;9.50;3.20;;;21.10;96.10;;;;;;5050025;28;20052;-51
2022/10/11 10:46:10;;;;;;;14.30;3.15;;;20.90;98.60;;;;;;5070299;28;20487;-51
2022/10/11 10:48:52;;;;;;;12.25;2.75;;;20.40;98.80;;;;;;5075068;28;20048;-48
2022/10/11 10:51:41;;;;;;;9.82;2.80;;;21.00;97.30;;;;;;5071032;28;20052;-51
2022/10/11 10:54:15;;;;;;;12.48;3.05;;;21.20;96.40;;;;;;5073831;28;20841;-51
2022/10/11 10:56:50;;;;;;;9.25;2.58;;;21.70;95.70;;;;;;5068416;28;20040;-48
2022/10/11 10:59:42;;;;;;;12.23;3.15;;;22.50;94.10;;;;;;5072108;28;20142;-50
2022/10/11 11:02:17;;;;;;;;;;;23.20;92.00;;;;;;5069512;28;20044;-50
2022/10/11 11:05:01;;;;;;;9.75;2.42;;;23.60;88.60;;;;;;5071063;28;19920;-52
2022/10/11 11:07:45;;;;;;;10.32;2.30;;;23.20;85.20;;;;;;5076110;28;20057;-50
2022/10/11 11:10:37;;;;;;;9.45;2.42;;;23.00;81.40;;;;;;5083330;28;20046;-51
2022/10/11 11:13:39;;;;;;;7.85;2.03;;;23.20;81.00;;;;;;5055605;28;20075;-43
2022/10/11 11:16:23;;;;;;;8.18;2.25;;;23.90;77.80;;;;;;5025936;28;20052;-46
2022/10/11 11:19:17;;;;;;;9.32;2.35;;;23.70;79.50;;;;;;5066825;28;20040;-50
2022/10/11 11:22:01;;;;;;;7.72;2.38;;;23.80;78.50;;;;;;5050838;28;20074;-44
2022/10/11 11:24:33;;;;;;;9.48;2.63;;;24.00;77.00;;;;;;5061590;28;21247;-44
2022/10/11 11:27:30;;;;;;;9.07;2.83;;;24.30;76.60;;;;;;5070127;28;20048;-45
2022/10/11 11:30:09;;;;;;;11.38;2.28;;;24.60;71.30;;;;;;5069757;28;20054;-45
2022/10/11 11:33:12;;;;;;;9.13;2.10;;;24.90;70.80;;;;;;5073376;28;20043;-44
2022/10/11 11:35:54;;;;;;;8.13;2.10;;;24.00;68.60;;;;;;5069634;28;20486;-44
2022/10/11 11:39:01;;;;;;;12.15;2.92;;;23.80;70.70;;;;;;5073790;28;20519;-44
2022/10/11 11:41:42;;;;;;;8.00;2.17;;;23.50;69.80;;;;;;5063943;28;20041;-44
2022/10/11 11:44:18;;;;;;;;;;;23.50;68.80;;;;;;5068592;28;20082;-44
2022/10/11 11:47:17;;;;;;;9.93;2.67;;;22.80;69.30;;;;;;5039885;28;20673;-42
2022/10/11 11:49:48;;;;;;;9.90;2.92;;;22.10;75.00;;;;;;5069609;28;20102;-44
2022/10/11 11:52:25;;;;;;;13.43;2.33;;;21.90;76.00;;;;;;5069411;28;20040;-43
2022/10/11 11:54:52;;;;;;;7.75;2.10;;;22.70;75.70;;;;;;5072546;28;20097;-43
2022/10/11 11:57:41;;;;;;;10.30;2.65;;;23.30;73.70;;;;;;5074064;28;20058;-44
2022/10/11 12:00:18;;;;;;;9.80;2.42;;;23.70;70.80;;;;;;5072599;28;20047;-50
2022/10/11 12:02:59;;;;;;;11.18;2.28;;;24.00;70.20;;;;;;5072647;28;20044;-42
2022/10/11 12:05:34;;;;;;;11.15;2.13;;;24.10;70.00;;;;;;5070376;28;20374;-43
2022/10/11 12:08:07;;;;;;;11.23;3.05;;;24.50;66.70;;;;;;5063181;28;20587;-42
2022/10/11 12:10:52;;;;;;;10.43;2.22;;;24.90;66.80;;;;;;5072519;28;20504;-43
2022/10/11 12:13:30;;;;;;;8.43;2.13;;;25.40;64.20;;;;;;5056507;28;20048;-43
2022/10/11 12:16:11;;;;;;;9.50;2.13;;;25.40;64.20;;;;;;5044351;28;20051;-45
2022/10/11 12:18:56;;;;;;;7.13;2.08;;;25.50;61.50;;;;;;5074575;28;20056;-45
2022/10/11 12:21:32;;;;;;;13.07;2.95;;;25.50;60.90;;;;;;5073062;28;21637;-42
2022/10/11 12:24:08;;;;;;;7.63;2.10;;;25.50;62.00;;;;;;5067660;28;20105;-43
2022/10/11 12:26:38;;;;;;;11.40;2.80;;;24.40;62.20;;;;;;5086937;28;20048;-44
2022/10/11 12:29:23;;;;;;;8.73;3.53;;;23.70;64.10;;;;;;5062546;28;20036;-46
2022/10/11 12:31:58;;;;;;;10.50;2.80;;;22.20;65.60;;;;;;5064679;28;20051;-43
2022/10/11 12:34:31;;;;;;;9.93;2.38;;;21.10;70.40;;;;;;5071296;28;20046;-44
2022/10/11 12:36:57;;;;;;;10.68;2.35;;;21.20;72.30;;;;;;5057466;28;20047;-42
2022/10/11 12:39:24;;;;;;;9.35;2.63;;;22.10;72.40;;;;;;5050599;28;20081;-42
2022/10/11 12:42:04;;;;;;;11.15;2.45;;;22.80;69.90;;;;;;5065578;28;20044;-43
2022/10/11 12:44:30;;;;;;;11.50;2.42;;;23.50;68.00;;;;;;5072249;28;20572;-42
2022/10/11 12:47:10;;;;;;;8.77;2.33;;;24.50;65.40;;;;;;5065165;28;20083;-43
2022/10/11 12:49:58;;;;;;;11.02;2.58;;;24.70;62.50;;;;;;5056097;28;20145;-44
2022/10/11 12:52:46;;;;;;;8.48;2.60;;;24.50;62.10;;;;;;5072018;28;20064;-49
2022/10/11 12:55:39;;;;;;;9.18;2.55;;;24.20;62.40;;;;;;5070181;28;20048;-49
2022/10/11 12:58:23;;;;;;;9.77;2.28;;;24.50;62.50;;;;;;5071224;28;20040;-49
2022/10/11 13:00:49;;;;;;;9.15;2.30;;;24.40;59.90;;;;;;5064807;28;20048;-51
2022/10/11 13:03:43;;;;;;;8.88;1.98;;;24.30;62.10;;;;;;5072332;28;20499;-48
2022/10/11 13:06:23;;;;;;;8.13;2.25;;;22.80;61.20;;;;;;5054296;28;20049;-49
2022/10/11 13:09:15;;;;;;;11.60;3.25;;;22.10;67.10;;;;;;5048943;28;20104;-49
2022/10/11 13:12:13;;;;;;;9.25;2.35;;;20.90;70.40;;;;;;5070368;28;20130;-49
2022/10/11 13:15:00;;;;;;;9.90;2.40;;;20.20;76.80;;;;;;5062405;28;20055;-50